sensor_id;sensor_type;location;lat;lon;timestamp;P1;durP1;ratioP1;P2;durP2;ratioP2
19339;SDS011;9804;52.350;6.684;2023-05-02T00:01:26;48.88;;;30.27;;
19339;SDS011;9804;52.350;6.684;2023-05-02T00:03:51;52.20;;;30.58;;
19339;SDS011;9804;52.350;6.684;2023-05-02T00:06:16;55.15;;;29.88;;
19339;SDS011;9804;52.350;6.684;2023-05-02T00:08:42;54.53;;;31.20;;
19339;SDS011;9804;52.350;6.684;2023-05-02T00:11:08;50.33;;;29.75;;
19339;SDS011;9804;52.350;6.684;2023-05-02T00:13:33;53.17;;;29.02;;
19339;SDS011;9804;52.350;6.684;2023-05-02T00:15:59;52.17;;;27.60;;
19339;SDS011;9804;52.350;6.684;2023-05-02T00:18:24;49.92;;;28.65;;
19339;SDS011;9804;52.350;6.684;2023-05-02T00:20:50;51.13;;;28.23;;
19339;SDS011;9804;52.350;6.684;2023-05-02T00:23:15;46.58;;;27.25;;
19339;SDS011;9804;52.350;6.684;2023-05-02T00:25:44;44.78;;;25.75;;
19339;SDS011;9804;52.350;6.684;2023-05-02T00:28:10;44.20;;;26.23;;
19339;SDS011;9804;52.350;6.684;2023-05-02T00:30:35;46.90;;;24.92;;
19339;SDS011;9804;52.350;6.684;2023-05-02T00:33:01;38.40;;;24.08;;
19339;SDS011;9804;52.350;6.684;2023-05-02T00:35:26;40.88;;;23.98;;
19339;SDS011;9804;52.350;6.684;2023-05-02T00:37:51;40.55;;;23.33;;
19339;SDS011;9804;52.350;6.684;2023-05-02T00:40:17;45.95;;;23.58;;
19339;SDS011;9804;52.350;6.684;2023-05-02T00:42:42;44.33;;;23.70;;
19339;SDS011;9804;52.350;6.684;2023-05-02T00:45:08;39.58;;;22.45;;
19339;SDS011;9804;52.350;6.684;2023-05-02T00:47:33;36.92;;;20.98;;
19339;SDS011;9804;52.350;6.684;2023-05-02T00:49:59;35.50;;;19.98;;
19339;SDS011;9804;52.350;6.684;2023-05-02T00:52:25;36.60;;;19.77;;
19339;SDS011;9804;52.350;6.684;2023-05-02T00:54:50;38.38;;;21.38;;
19339;SDS011;9804;52.350;6.684;2023-05-02T00:57:16;34.80;;;20.30;;
19339;SDS011;9804;52.350;6.684;2023-05-02T00:59:41;34.83;;;19.88;;
19339;SDS011;9804;52.350;6.684;2023-05-02T01:04:59;37.38;;;20.60;;
19339;SDS011;9804;52.350;6.684;2023-05-02T01:10:20;34.90;;;20.05;;
19339;SDS011;9804;52.350;6.684;2023-05-02T01:15:38;39.42;;;19.65;;
19339;SDS011;9804;52.350;6.684;2023-05-02T01:18:06;34.42;;;18.83;;
19339;SDS011;9804;52.350;6.684;2023-05-02T01:20:35;36.85;;;18.70;;
19339;SDS011;9804;52.350;6.684;2023-05-02T01:23:08;35.72;;;18.77;;
19339;SDS011;9804;52.350;6.684;2023-05-02T01:28:59;33.25;;;19.05;;
19339;SDS011;9804;52.350;6.684;2023-05-02T01:31:31;29.20;;;17.17;;
19339;SDS011;9804;52.350;6.684;2023-05-02T01:34:03;31.10;;;16.10;;
19339;SDS011;9804;52.350;6.684;2023-05-02T01:36:30;32.78;;;16.40;;
19339;SDS011;9804;52.350;6.684;2023-05-02T01:38:58;27.85;;;14.65;;
19339;SDS011;9804;52.350;6.684;2023-05-02T01:41:25;22.90;;;13.73;;
19339;SDS011;9804;52.350;6.684;2023-05-02T01:43:53;22.45;;;14.20;;
19339;SDS011;9804;52.350;6.684;2023-05-02T01:46:26;26.10;;;13.45;;
19339;SDS011;9804;52.350;6.684;2023-05-02T01:48:58;27.60;;;12.32;;
19339;SDS011;9804;52.350;6.684;2023-05-02T01:51:27;20.17;;;11.20;;
19339;SDS011;9804;52.350;6.684;2023-05-02T01:53:57;20.98;;;11.68;;
19339;SDS011;9804;52.350;6.684;2023-05-02T01:56:25;15.25;;;9.70;;
19339;SDS011;9804;52.350;6.684;2023-05-02T01:58:53;22.73;;;8.65;;
19339;SDS011;9804;52.350;6.684;2023-05-02T02:01:19;14.02;;;7.10;;
19339;SDS011;9804;52.350;6.684;2023-05-02T02:03:46;13.57;;;6.47;;
19339;SDS011;9804;52.350;6.684;2023-05-02T02:06:12;10.63;;;5.68;;
19339;SDS011;9804;52.350;6.684;2023-05-02T02:08:38;13.13;;;6.30;;
19339;SDS011;9804;52.350;6.684;2023-05-02T02:11:06;10.23;;;5.47;;
19339;SDS011;9804;52.350;6.684;2023-05-02T02:13:38;14.93;;;6.40;;
19339;SDS011;9804;52.350;6.684;2023-05-02T02:16:11;16.08;;;6.05;;
19339;SDS011;9804;52.350;6.684;2023-05-02T02:18:42;11.85;;;6.10;;
19339;SDS011;9804;52.350;6.684;2023-05-02T02:21:09;14.27;;;6.43;;
19339;SDS011;9804;52.350;6.684;2023-05-02T02:23:35;12.80;;;5.20;;
19339;SDS011;9804;52.350;6.684;2023-05-02T02:26:03;14.43;;;5.45;;
19339;SDS011;9804;52.350;6.684;2023-05-02T02:28:30;16.55;;;5.18;;
19339;SDS011;9804;52.350;6.684;2023-05-02T02:30:56;11.25;;;4.57;;
19339;SDS011;9804;52.350;6.684;2023-05-02T02:33:21;11.27;;;4.53;;
19339;SDS011;9804;52.350;6.684;2023-05-02T02:35:52;8.35;;;4.50;;
19339;SDS011;9804;52.350;6.684;2023-05-02T02:41:22;11.02;;;4.32;;
19339;SDS011;9804;52.350;6.684;2023-05-02T02:46:59;9.73;;;3.97;;
19339;SDS011;9804;52.350;6.684;2023-05-02T02:49:46;11.98;;;4.22;;
19339;SDS011;9804;52.350;6.684;2023-05-02T02:52:31;10.05;;;4.25;;
19339;SDS011;9804;52.350;6.684;2023-05-02T02:57:58;11.27;;;3.50;;
19339;SDS011;9804;52.350;6.684;2023-05-02T03:00:28;10.15;;;3.42;;
19339;SDS011;9804;52.350;6.684;2023-05-02T03:02:54;6.95;;;3.08;;
19339;SDS011;9804;52.350;6.684;2023-05-02T03:05:21;9.60;;;3.22;;
19339;SDS011;9804;52.350;6.684;2023-05-02T03:07:47;7.80;;;2.80;;
19339;SDS011;9804;52.350;6.684;2023-05-02T03:10:13;13.32;;;2.78;;
19339;SDS011;9804;52.350;6.684;2023-05-02T03:12:38;10.10;;;2.95;;
19339;SDS011;9804;52.350;6.684;2023-05-02T03:17:45;8.32;;;2.63;;
19339;SDS011;9804;52.350;6.684;2023-05-02T03:20:10;8.52;;;2.25;;
19339;SDS011;9804;52.350;6.684;2023-05-02T03:22:35;5.88;;;2.63;;
19339;SDS011;9804;52.350;6.684;2023-05-02T03:25:01;8.38;;;2.97;;
19339;SDS011;9804;52.350;6.684;2023-05-02T03:27:27;5.63;;;2.85;;
19339;SDS011;9804;52.350;6.684;2023-05-02T03:29:53;8.95;;;2.78;;
19339;SDS011;9804;52.350;6.684;2023-05-02T03:32:18;5.40;;;2.60;;
19339;SDS011;9804;52.350;6.684;2023-05-02T03:34:43;10.55;;;2.70;;
19339;SDS011;9804;52.350;6.684;2023-05-02T03:37:09;7.35;;;2.45;;
19339;SDS011;9804;52.350;6.684;2023-05-02T03:39:34;7.28;;;2.88;;
19339;SDS011;9804;52.350;6.684;2023-05-02T03:42:00;8.43;;;2.80;;
19339;SDS011;9804;52.350;6.684;2023-05-02T03:44:25;11.77;;;3.13;;
19339;SDS011;9804;52.350;6.684;2023-05-02T03:46:51;6.78;;;2.55;;
19339;SDS011;9804;52.350;6.684;2023-05-02T03:49:16;8.02;;;2.53;;
19339;SDS011;9804;52.350;6.684;2023-05-02T03:51:43;10.35;;;2.60;;
19339;SDS011;9804;52.350;6.684;2023-05-02T03:54:09;9.20;;;2.80;;
19339;SDS011;9804;52.350;6.684;2023-05-02T03:56:34;8.23;;;2.40;;
19339;SDS011;9804;52.350;6.684;2023-05-02T03:59:00;8.57;;;2.90;;
19339;SDS011;9804;52.350;6.684;2023-05-02T04:01:25;7.18;;;2.45;;
19339;SDS011;9804;52.350;6.684;2023-05-02T04:03:51;9.80;;;2.45;;
19339;SDS011;9804;52.350;6.684;2023-05-02T04:06:17;7.15;;;2.50;;
19339;SDS011;9804;52.350;6.684;2023-05-02T04:08:42;11.20;;;2.85;;
19339;SDS011;9804;52.350;6.684;2023-05-02T04:11:07;8.20;;;3.00;;
19339;SDS011;9804;52.350;6.684;2023-05-02T04:13:33;7.18;;;3.20;;
19339;SDS011;9804;52.350;6.684;2023-05-02T04:15:58;8.20;;;3.28;;
19339;SDS011;9804;52.350;6.684;2023-05-02T04:18:23;10.00;;;3.33;;
19339;SDS011;9804;52.350;6.684;2023-05-02T04:20:49;8.80;;;3.78;;
19339;SDS011;9804;52.350;6.684;2023-05-02T04:23:14;7.75;;;3.58;;
19339;SDS011;9804;52.350;6.684;2023-05-02T04:25:40;9.00;;;3.97;;
19339;SDS011;9804;52.350;6.684;2023-05-02T04:28:05;10.30;;;3.63;;
19339;SDS011;9804;52.350;6.684;2023-05-02T04:30:30;9.65;;;3.78;;
19339;SDS011;9804;52.350;6.684;2023-05-02T04:32:56;10.32;;;3.90;;
19339;SDS011;9804;52.350;6.684;2023-05-02T04:35:22;15.88;;;3.95;;
19339;SDS011;9804;52.350;6.684;2023-05-02T04:37:47;10.45;;;4.00;;
19339;SDS011;9804;52.350;6.684;2023-05-02T04:40:12;16.88;;;4.65;;
19339;SDS011;9804;52.350;6.684;2023-05-02T04:42:38;14.18;;;4.32;;
19339;SDS011;9804;52.350;6.684;2023-05-02T04:45:03;19.15;;;5.00;;
19339;SDS011;9804;52.350;6.684;2023-05-02T04:47:29;18.55;;;5.32;;
19339;SDS011;9804;52.350;6.684;2023-05-02T04:49:54;25.45;;;5.72;;
19339;SDS011;9804;52.350;6.684;2023-05-02T04:52:20;19.15;;;5.53;;
19339;SDS011;9804;52.350;6.684;2023-05-02T04:54:45;22.13;;;5.53;;
19339;SDS011;9804;52.350;6.684;2023-05-02T04:57:10;20.52;;;5.20;;
19339;SDS011;9804;52.350;6.684;2023-05-02T04:59:36;21.35;;;5.30;;
19339;SDS011;9804;52.350;6.684;2023-05-02T05:02:02;20.30;;;6.50;;
19339;SDS011;9804;52.350;6.684;2023-05-02T05:04:28;21.23;;;5.25;;
19339;SDS011;9804;52.350;6.684;2023-05-02T05:07:01;19.60;;;5.30;;
19339;SDS011;9804;52.350;6.684;2023-05-02T05:09:27;20.83;;;5.22;;
19339;SDS011;9804;52.350;6.684;2023-05-02T05:11:52;15.27;;;5.30;;
19339;SDS011;9804;52.350;6.684;2023-05-02T05:14:18;31.33;;;6.78;;
19339;SDS011;9804;52.350;6.684;2023-05-02T05:16:43;29.17;;;6.32;;
19339;SDS011;9804;52.350;6.684;2023-05-02T05:19:08;32.25;;;6.13;;
19339;SDS011;9804;52.350;6.684;2023-05-02T05:21:34;28.17;;;6.68;;
19339;SDS011;9804;52.350;6.684;2023-05-02T05:24:00;26.45;;;6.57;;
19339;SDS011;9804;52.350;6.684;2023-05-02T05:26:26;29.35;;;6.28;;
19339;SDS011;9804;52.350;6.684;2023-05-02T05:28:51;35.35;;;6.72;;
19339;SDS011;9804;52.350;6.684;2023-05-02T05:31:17;26.30;;;6.50;;
19339;SDS011;9804;52.350;6.684;2023-05-02T05:33:42;40.83;;;8.50;;
19339;SDS011;9804;52.350;6.684;2023-05-02T05:36:11;26.27;;;6.22;;
19339;SDS011;9804;52.350;6.684;2023-05-02T05:38:39;24.33;;;6.45;;
19339;SDS011;9804;52.350;6.684;2023-05-02T05:41:04;23.30;;;6.45;;
19339;SDS011;9804;52.350;6.684;2023-05-02T05:43:30;22.83;;;6.18;;
19339;SDS011;9804;52.350;6.684;2023-05-02T05:45:56;27.02;;;6.20;;
19339;SDS011;9804;52.350;6.684;2023-05-02T05:48:21;27.67;;;6.07;;
19339;SDS011;9804;52.350;6.684;2023-05-02T05:50:47;26.27;;;5.85;;
19339;SDS011;9804;52.350;6.684;2023-05-02T05:53:13;26.25;;;6.53;;
19339;SDS011;9804;52.350;6.684;2023-05-02T05:55:38;17.63;;;6.13;;
19339;SDS011;9804;52.350;6.684;2023-05-02T05:58:04;33.88;;;5.80;;
19339;SDS011;9804;52.350;6.684;2023-05-02T06:00:33;24.88;;;6.47;;
19339;SDS011;9804;52.350;6.684;2023-05-02T06:03:00;17.95;;;4.90;;
19339;SDS011;9804;52.350;6.684;2023-05-02T06:05:25;22.08;;;4.07;;
19339;SDS011;9804;52.350;6.684;2023-05-02T06:07:51;14.23;;;4.35;;
19339;SDS011;9804;52.350;6.684;2023-05-02T06:10:16;20.50;;;5.30;;
19339;SDS011;9804;52.350;6.684;2023-05-02T06:12:42;19.83;;;4.13;;
19339;SDS011;9804;52.350;6.684;2023-05-02T06:15:07;17.83;;;4.07;;
19339;SDS011;9804;52.350;6.684;2023-05-02T06:17:33;16.67;;;3.72;;
19339;SDS011;9804;52.350;6.684;2023-05-02T06:19:58;14.05;;;3.40;;
19339;SDS011;9804;52.350;6.684;2023-05-02T06:22:24;12.82;;;3.20;;
19339;SDS011;9804;52.350;6.684;2023-05-02T06:24:49;16.98;;;2.92;;
19339;SDS011;9804;52.350;6.684;2023-05-02T06:27:14;9.98;;;2.85;;
19339;SDS011;9804;52.350;6.684;2023-05-02T06:29:40;9.68;;;2.80;;
19339;SDS011;9804;52.350;6.684;2023-05-02T06:32:05;14.05;;;2.80;;
19339;SDS011;9804;52.350;6.684;2023-05-02T06:34:31;12.25;;;2.50;;
19339;SDS011;9804;52.350;6.684;2023-05-02T06:36:57;8.48;;;2.45;;
19339;SDS011;9804;52.350;6.684;2023-05-02T06:39:22;14.07;;;2.35;;
19339;SDS011;9804;52.350;6.684;2023-05-02T06:41:48;10.10;;;2.33;;
19339;SDS011;9804;52.350;6.684;2023-05-02T06:44:14;8.15;;;2.25;;
19339;SDS011;9804;52.350;6.684;2023-05-02T06:46:39;10.50;;;2.03;;
19339;SDS011;9804;52.350;6.684;2023-05-02T06:49:04;9.70;;;1.98;;
19339;SDS011;9804;52.350;6.684;2023-05-02T06:51:30;8.85;;;2.17;;
19339;SDS011;9804;52.350;6.684;2023-05-02T06:53:56;10.23;;;1.95;;
19339;SDS011;9804;52.350;6.684;2023-05-02T06:56:22;10.35;;;2.22;;
19339;SDS011;9804;52.350;6.684;2023-05-02T06:58:49;5.53;;;1.88;;
19339;SDS011;9804;52.350;6.684;2023-05-02T07:01:15;16.90;;;2.35;;
19339;SDS011;9804;52.350;6.684;2023-05-02T07:03:40;9.45;;;2.22;;
19339;SDS011;9804;52.350;6.684;2023-05-02T07:06:06;8.75;;;1.90;;
19339;SDS011;9804;52.350;6.684;2023-05-02T07:08:31;10.85;;;1.88;;
19339;SDS011;9804;52.350;6.684;2023-05-02T07:10:56;8.10;;;1.98;;
19339;SDS011;9804;52.350;6.684;2023-05-02T07:13:22;16.00;;;2.50;;
19339;SDS011;9804;52.350;6.684;2023-05-02T07:15:47;11.63;;;2.45;;
19339;SDS011;9804;52.350;6.684;2023-05-02T07:18:13;6.88;;;2.30;;
19339;SDS011;9804;52.350;6.684;2023-05-02T07:20:38;10.90;;;1.83;;
19339;SDS011;9804;52.350;6.684;2023-05-02T07:23:05;7.93;;;1.73;;
19339;SDS011;9804;52.350;6.684;2023-05-02T07:25:30;6.60;;;2.20;;
19339;SDS011;9804;52.350;6.684;2023-05-02T07:27:56;5.53;;;2.10;;
19339;SDS011;9804;52.350;6.684;2023-05-02T07:30:22;15.88;;;2.28;;
19339;SDS011;9804;52.350;6.684;2023-05-02T07:32:47;8.10;;;1.70;;
19339;SDS011;9804;52.350;6.684;2023-05-02T07:35:13;9.70;;;2.05;;
19339;SDS011;9804;52.350;6.684;2023-05-02T07:37:38;10.10;;;2.22;;
19339;SDS011;9804;52.350;6.684;2023-05-02T07:40:04;9.43;;;2.50;;
19339;SDS011;9804;52.350;6.684;2023-05-02T07:42:31;12.57;;;2.28;;
19339;SDS011;9804;52.350;6.684;2023-05-02T07:44:57;6.55;;;1.60;;
19339;SDS011;9804;52.350;6.684;2023-05-02T07:47:22;10.07;;;2.10;;
19339;SDS011;9804;52.350;6.684;2023-05-02T07:49:51;6.60;;;1.98;;
19339;SDS011;9804;52.350;6.684;2023-05-02T07:52:17;7.38;;;1.75;;
19339;SDS011;9804;52.350;6.684;2023-05-02T07:54:43;11.52;;;1.90;;
19339;SDS011;9804;52.350;6.684;2023-05-02T07:57:08;6.90;;;1.75;;
19339;SDS011;9804;52.350;6.684;2023-05-02T07:59:34;12.40;;;2.00;;
19339;SDS011;9804;52.350;6.684;2023-05-02T08:01:59;8.63;;;1.60;;
19339;SDS011;9804;52.350;6.684;2023-05-02T08:04:25;5.72;;;1.65;;
19339;SDS011;9804;52.350;6.684;2023-05-02T08:06:50;8.77;;;1.85;;
19339;SDS011;9804;52.350;6.684;2023-05-02T08:09:16;8.60;;;1.60;;
19339;SDS011;9804;52.350;6.684;2023-05-02T08:11:41;11.40;;;1.70;;
19339;SDS011;9804;52.350;6.684;2023-05-02T08:14:07;7.82;;;1.52;;
19339;SDS011;9804;52.350;6.684;2023-05-02T08:16:32;5.95;;;1.42;;
19339;SDS011;9804;52.350;6.684;2023-05-02T08:18:58;8.32;;;1.75;;
19339;SDS011;9804;52.350;6.684;2023-05-02T08:21:23;8.25;;;2.03;;
19339;SDS011;9804;52.350;6.684;2023-05-02T08:23:48;8.63;;;1.75;;
19339;SDS011;9804;52.350;6.684;2023-05-02T08:26:14;10.25;;;2.20;;
19339;SDS011;9804;52.350;6.684;2023-05-02T08:28:40;12.52;;;1.90;;
19339;SDS011;9804;52.350;6.684;2023-05-02T08:31:05;8.43;;;1.90;;
19339;SDS011;9804;52.350;6.684;2023-05-02T08:33:30;6.53;;;1.70;;
19339;SDS011;9804;52.350;6.684;2023-05-02T08:35:56;11.00;;;2.15;;
19339;SDS011;9804;52.350;6.684;2023-05-02T08:38:21;5.90;;;1.50;;
19339;SDS011;9804;52.350;6.684;2023-05-02T08:40:47;10.35;;;1.80;;
19339;SDS011;9804;52.350;6.684;2023-05-02T08:43:12;10.35;;;2.03;;
19339;SDS011;9804;52.350;6.684;2023-05-02T08:45:41;8.30;;;1.40;;
19339;SDS011;9804;52.350;6.684;2023-05-02T08:48:09;9.18;;;1.92;;
19339;SDS011;9804;52.350;6.684;2023-05-02T08:50:40;6.47;;;1.90;;
19339;SDS011;9804;52.350;6.684;2023-05-02T08:53:11;9.68;;;2.38;;
19339;SDS011;9804;52.350;6.684;2023-05-02T08:55:38;10.77;;;2.22;;
19339;SDS011;9804;52.350;6.684;2023-05-02T08:58:05;9.55;;;2.47;;
19339;SDS011;9804;52.350;6.684;2023-05-02T09:00:32;10.65;;;1.95;;
19339;SDS011;9804;52.350;6.684;2023-05-02T09:03:05;6.97;;;2.05;;
19339;SDS011;9804;52.350;6.684;2023-05-02T09:05:36;11.93;;;2.50;;
19339;SDS011;9804;52.350;6.684;2023-05-02T09:08:04;14.07;;;1.95;;
19339;SDS011;9804;52.350;6.684;2023-05-02T09:10:30;8.38;;;2.28;;
19339;SDS011;9804;52.350;6.684;2023-05-02T09:15:59;8.98;;;2.20;;
19339;SDS011;9804;52.350;6.684;2023-05-02T09:18:45;6.88;;;2.20;;
19339;SDS011;9804;52.350;6.684;2023-05-02T09:21:22;14.20;;;2.25;;
19339;SDS011;9804;52.350;6.684;2023-05-02T09:23:51;7.32;;;2.20;;
19339;SDS011;9804;52.350;6.684;2023-05-02T09:26:19;10.00;;;2.15;;
19339;SDS011;9804;52.350;6.684;2023-05-02T09:28:48;12.10;;;2.72;;
19339;SDS011;9804;52.350;6.684;2023-05-02T09:31:21;12.63;;;2.65;;
19339;SDS011;9804;52.350;6.684;2023-05-02T09:33:50;5.38;;;1.52;;
19339;SDS011;9804;52.350;6.684;2023-05-02T09:36:16;9.73;;;1.95;;
19339;SDS011;9804;52.350;6.684;2023-05-02T09:38:44;9.63;;;2.50;;
19339;SDS011;9804;52.350;6.684;2023-05-02T09:41:10;8.75;;;2.03;;
19339;SDS011;9804;52.350;6.684;2023-05-02T09:43:37;11.15;;;2.42;;
19339;SDS011;9804;52.350;6.684;2023-05-02T09:46:06;7.78;;;2.63;;
19339;SDS011;9804;52.350;6.684;2023-05-02T09:51:18;9.30;;;2.30;;
19339;SDS011;9804;52.350;6.684;2023-05-02T09:53:45;9.93;;;3.10;;
19339;SDS011;9804;52.350;6.684;2023-05-02T09:56:11;12.63;;;3.05;;
19339;SDS011;9804;52.350;6.684;2023-05-02T09:58:37;13.40;;;2.80;;
19339;SDS011;9804;52.350;6.684;2023-05-02T10:01:02;8.05;;;2.55;;
19339;SDS011;9804;52.350;6.684;2023-05-02T10:03:28;12.20;;;2.30;;
19339;SDS011;9804;52.350;6.684;2023-05-02T10:05:54;7.32;;;2.25;;
19339;SDS011;9804;52.350;6.684;2023-05-02T10:08:21;6.93;;;2.40;;
19339;SDS011;9804;52.350;6.684;2023-05-02T10:10:49;8.45;;;2.40;;
19339;SDS011;9804;52.350;6.684;2023-05-02T10:13:19;9.52;;;2.38;;
19339;SDS011;9804;52.350;6.684;2023-05-02T10:15:47;12.13;;;3.08;;
19339;SDS011;9804;52.350;6.684;2023-05-02T10:18:16;10.02;;;2.97;;
19339;SDS011;9804;52.350;6.684;2023-05-02T10:20:53;12.65;;;3.58;;
19339;SDS011;9804;52.350;6.684;2023-05-02T10:23:24;10.70;;;2.63;;
19339;SDS011;9804;52.350;6.684;2023-05-02T10:25:51;10.27;;;2.85;;
19339;SDS011;9804;52.350;6.684;2023-05-02T10:28:17;9.48;;;2.88;;
19339;SDS011;9804;52.350;6.684;2023-05-02T10:30:42;10.48;;;2.75;;
19339;SDS011;9804;52.350;6.684;2023-05-02T10:33:08;8.45;;;2.75;;
19339;SDS011;9804;52.350;6.684;2023-05-02T10:35:37;9.38;;;2.78;;
19339;SDS011;9804;52.350;6.684;2023-05-02T10:38:07;7.63;;;2.38;;
19339;SDS011;9804;52.350;6.684;2023-05-02T10:40:34;8.93;;;2.67;;
19339;SDS011;9804;52.350;6.684;2023-05-02T10:43:00;10.93;;;2.42;;
19339;SDS011;9804;52.350;6.684;2023-05-02T10:45:34;10.27;;;2.90;;
19339;SDS011;9804;52.350;6.684;2023-05-02T10:50:43;12.57;;;2.65;;
19339;SDS011;9804;52.350;6.684;2023-05-02T10:53:44;15.45;;;2.92;;
19339;SDS011;9804;52.350;6.684;2023-05-02T10:56:07;10.75;;;2.95;;
19339;SDS011;9804;52.350;6.684;2023-05-02T10:58:33;10.18;;;2.55;;
19339;SDS011;9804;52.350;6.684;2023-05-02T11:03:56;10.23;;;2.50;;
19339;SDS011;9804;52.350;6.684;2023-05-02T11:06:33;12.75;;;2.75;;
19339;SDS011;9804;52.350;6.684;2023-05-02T11:11:46;10.85;;;2.70;;
19339;SDS011;9804;52.350;6.684;2023-05-02T11:22:29;5.82;;;2.30;;
19339;SDS011;9804;52.350;6.684;2023-05-02T11:24:55;9.68;;;2.08;;
19339;SDS011;9804;52.350;6.684;2023-05-02T11:29:58;6.65;;;2.00;;
19339;SDS011;9804;52.350;6.684;2023-05-02T11:33:10;7.10;;;2.58;;
19339;SDS011;9804;52.350;6.684;2023-05-02T11:35:18;9.63;;;2.80;;
19339;SDS011;9804;52.350;6.684;2023-05-02T11:38:00;7.53;;;2.35;;
19339;SDS011;9804;52.350;6.684;2023-05-02T11:40:30;6.85;;;2.30;;
19339;SDS011;9804;52.350;6.684;2023-05-02T11:42:56;5.82;;;2.15;;
19339;SDS011;9804;52.350;6.684;2023-05-02T11:45:33;8.23;;;2.63;;
19339;SDS011;9804;52.350;6.684;2023-05-02T11:48:00;7.78;;;2.47;;
19339;SDS011;9804;52.350;6.684;2023-05-02T11:50:26;11.65;;;2.70;;
19339;SDS011;9804;52.350;6.684;2023-05-02T11:52:54;5.60;;;2.38;;
19339;SDS011;9804;52.350;6.684;2023-05-02T11:55:19;7.82;;;2.70;;
19339;SDS011;9804;52.350;6.684;2023-05-02T11:57:45;8.55;;;2.45;;
19339;SDS011;9804;52.350;6.684;2023-05-02T12:00:10;9.80;;;2.28;;
19339;SDS011;9804;52.350;6.684;2023-05-02T12:02:41;10.57;;;2.40;;
19339;SDS011;9804;52.350;6.684;2023-05-02T12:05:07;8.25;;;2.45;;
19339;SDS011;9804;52.350;6.684;2023-05-02T12:10:10;7.20;;;2.20;;
19339;SDS011;9804;52.350;6.684;2023-05-02T12:12:37;6.60;;;2.42;;
19339;SDS011;9804;52.350;6.684;2023-05-02T12:15:05;11.13;;;2.13;;
19339;SDS011;9804;52.350;6.684;2023-05-02T12:17:32;7.30;;;2.25;;
19339;SDS011;9804;52.350;6.684;2023-05-02T12:20:04;8.90;;;2.28;;
19339;SDS011;9804;52.350;6.684;2023-05-02T12:22:46;7.70;;;2.75;;
19339;SDS011;9804;52.350;6.684;2023-05-02T12:25:12;7.15;;;2.78;;
19339;SDS011;9804;52.350;6.684;2023-05-02T12:27:37;9.25;;;2.20;;
19339;SDS011;9804;52.350;6.684;2023-05-02T12:30:03;8.85;;;2.45;;
19339;SDS011;9804;52.350;6.684;2023-05-02T12:32:30;9.70;;;2.30;;
19339;SDS011;9804;52.350;6.684;2023-05-02T12:34:58;11.43;;;2.90;;
19339;SDS011;9804;52.350;6.684;2023-05-02T12:37:25;6.90;;;1.85;;
19339;SDS011;9804;52.350;6.684;2023-05-02T12:39:51;8.07;;;2.22;;
19339;SDS011;9804;52.350;6.684;2023-05-02T12:42:18;10.27;;;2.30;;
19339;SDS011;9804;52.350;6.684;2023-05-02T12:44:46;6.85;;;2.10;;
19339;SDS011;9804;52.350;6.684;2023-05-02T12:47:13;6.88;;;2.17;;
19339;SDS011;9804;52.350;6.684;2023-05-02T12:49:56;7.68;;;2.05;;
19339;SDS011;9804;52.350;6.684;2023-05-02T12:55:19;5.63;;;2.05;;
19339;SDS011;9804;52.350;6.684;2023-05-02T12:57:48;10.65;;;2.22;;
19339;SDS011;9804;52.350;6.684;2023-05-02T13:00:16;9.77;;;2.20;;
19339;SDS011;9804;52.350;6.684;2023-05-02T13:02:42;12.00;;;2.25;;
19339;SDS011;9804;52.350;6.684;2023-05-02T13:05:14;7.57;;;2.45;;
19339;SDS011;9804;52.350;6.684;2023-05-02T13:07:42;5.70;;;2.13;;
19339;SDS011;9804;52.350;6.684;2023-05-02T13:10:08;8.43;;;2.17;;
19339;SDS011;9804;52.350;6.684;2023-05-02T13:12:35;6.03;;;1.80;;
19339;SDS011;9804;52.350;6.684;2023-05-02T13:15:06;7.68;;;2.05;;
19339;SDS011;9804;52.350;6.684;2023-05-02T13:17:32;11.13;;;2.28;;
19339;SDS011;9804;52.350;6.684;2023-05-02T13:19:58;10.80;;;2.50;;
19339;SDS011;9804;52.350;6.684;2023-05-02T13:22:24;7.10;;;2.30;;
19339;SDS011;9804;52.350;6.684;2023-05-02T13:24:50;6.45;;;1.92;;
19339;SDS011;9804;52.350;6.684;2023-05-02T13:27:16;4.68;;;1.90;;
19339;SDS011;9804;52.350;6.684;2023-05-02T13:29:45;5.68;;;1.70;;
19339;SDS011;9804;52.350;6.684;2023-05-02T13:32:11;5.18;;;1.70;;
19339;SDS011;9804;52.350;6.684;2023-05-02T13:34:36;5.70;;;1.80;;
19339;SDS011;9804;52.350;6.684;2023-05-02T13:37:02;7.15;;;2.15;;
19339;SDS011;9804;52.350;6.684;2023-05-02T13:39:27;5.80;;;1.55;;
19339;SDS011;9804;52.350;6.684;2023-05-02T13:41:53;7.07;;;1.67;;
19339;SDS011;9804;52.350;6.684;2023-05-02T13:44:18;3.75;;;1.52;;
19339;SDS011;9804;52.350;6.684;2023-05-02T13:46:43;7.07;;;1.83;;
19339;SDS011;9804;52.350;6.684;2023-05-02T13:49:09;4.22;;;1.60;;
19339;SDS011;9804;52.350;6.684;2023-05-02T13:51:34;5.63;;;1.90;;
19339;SDS011;9804;52.350;6.684;2023-05-02T13:54:00;5.00;;;1.70;;
19339;SDS011;9804;52.350;6.684;2023-05-02T13:56:26;4.90;;;1.60;;
19339;SDS011;9804;52.350;6.684;2023-05-02T13:58:52;3.78;;;1.40;;
19339;SDS011;9804;52.350;6.684;2023-05-02T14:01:17;3.15;;;1.63;;
19339;SDS011;9804;52.350;6.684;2023-05-02T14:03:43;5.45;;;1.50;;
19339;SDS011;9804;52.350;6.684;2023-05-02T14:06:08;5.57;;;1.35;;
19339;SDS011;9804;52.350;6.684;2023-05-02T14:08:34;5.28;;;1.75;;
19339;SDS011;9804;52.350;6.684;2023-05-02T14:10:59;5.03;;;1.75;;
19339;SDS011;9804;52.350;6.684;2023-05-02T14:13:25;5.05;;;1.70;;
19339;SDS011;9804;52.350;6.684;2023-05-02T14:15:51;3.47;;;1.52;;
19339;SDS011;9804;52.350;6.684;2023-05-02T14:18:17;6.57;;;1.65;;
19339;SDS011;9804;52.350;6.684;2023-05-02T14:20:42;6.57;;;1.33;;
19339;SDS011;9804;52.350;6.684;2023-05-02T14:23:08;3.83;;;1.23;;
19339;SDS011;9804;52.350;6.684;2023-05-02T14:25:34;3.58;;;1.45;;
19339;SDS011;9804;52.350;6.684;2023-05-02T14:28:00;3.45;;;1.77;;
19339;SDS011;9804;52.350;6.684;2023-05-02T14:30:25;5.80;;;1.45;;
19339;SDS011;9804;52.350;6.684;2023-05-02T14:32:51;6.50;;;1.58;;
19339;SDS011;9804;52.350;6.684;2023-05-02T14:35:16;8.50;;;1.73;;
19339;SDS011;9804;52.350;6.684;2023-05-02T14:37:42;4.55;;;1.33;;
19339;SDS011;9804;52.350;6.684;2023-05-02T14:40:09;6.32;;;1.42;;
19339;SDS011;9804;52.350;6.684;2023-05-02T14:42:36;4.20;;;1.20;;
19339;SDS011;9804;52.350;6.684;2023-05-02T14:45:01;3.35;;;1.40;;
19339;SDS011;9804;52.350;6.684;2023-05-02T14:47:27;2.72;;;1.40;;
19339;SDS011;9804;52.350;6.684;2023-05-02T14:49:55;5.72;;;1.23;;
19339;SDS011;9804;52.350;6.684;2023-05-02T14:52:20;4.20;;;1.40;;
19339;SDS011;9804;52.350;6.684;2023-05-02T14:54:45;6.07;;;1.23;;
19339;SDS011;9804;52.350;6.684;2023-05-02T14:57:11;3.72;;;1.25;;
19339;SDS011;9804;52.350;6.684;2023-05-02T14:59:36;3.42;;;1.05;;
19339;SDS011;9804;52.350;6.684;2023-05-02T15:02:02;3.00;;;1.20;;
19339;SDS011;9804;52.350;6.684;2023-05-02T15:04:28;4.55;;;1.42;;
19339;SDS011;9804;52.350;6.684;2023-05-02T15:06:54;2.50;;;1.25;;
19339;SDS011;9804;52.350;6.684;2023-05-02T15:09:20;3.63;;;1.30;;
19339;SDS011;9804;52.350;6.684;2023-05-02T15:11:47;8.13;;;1.60;;
19339;SDS011;9804;52.350;6.684;2023-05-02T15:14:12;2.58;;;1.20;;
19339;SDS011;9804;52.350;6.684;2023-05-02T15:16:38;6.05;;;1.25;;
19339;SDS011;9804;52.350;6.684;2023-05-02T15:19:03;5.85;;;1.58;;
19339;SDS011;9804;52.350;6.684;2023-05-02T15:21:29;5.97;;;1.35;;
19339;SDS011;9804;52.350;6.684;2023-05-02T15:23:54;3.90;;;1.27;;
19339;SDS011;9804;52.350;6.684;2023-05-02T15:26:20;5.15;;;1.20;;
19339;SDS011;9804;52.350;6.684;2023-05-02T15:28:46;5.90;;;1.42;;
19339;SDS011;9804;52.350;6.684;2023-05-02T15:31:11;5.80;;;1.50;;
19339;SDS011;9804;52.350;6.684;2023-05-02T15:33:37;5.63;;;1.23;;
19339;SDS011;9804;52.350;6.684;2023-05-02T15:36:03;4.05;;;1.30;;
19339;SDS011;9804;52.350;6.684;2023-05-02T15:38:28;5.45;;;1.52;;
19339;SDS011;9804;52.350;6.684;2023-05-02T15:40:55;2.58;;;1.10;;
19339;SDS011;9804;52.350;6.684;2023-05-02T15:43:21;5.65;;;1.27;;
19339;SDS011;9804;52.350;6.684;2023-05-02T15:45:51;5.85;;;1.45;;